Time;durP1;ratioP1;P1;durP2;ratioP2;P2;SDS_P1;SDS_P2;PMS_P1;PMS_P2;Temp;Humidity;BMP_temperature;BMP_pressure;BME280_temperature;BME280_humidity;BME280_pressure;Samples;Min_cycle;Max_cycle;Signal;HPM_P1;HPM_P2
2021/10/26 00:01:16;;;;;;;25.92;15.08;;;;;;;0.93;57.66;101131.02;1756807;79;21506;-62
2021/10/26 00:03:43;;;;;;;27.05;15.55;;;;;;;0.91;57.82;101131.41;1765705;79;21100;-61
2021/10/26 00:06:10;;;;;;;26.82;14.40;;;;;;;0.89;57.83;101137.84;1760730;79;21515;-60
2021/10/26 00:08:36;;;;;;;27.20;15.20;;;;;;;0.87;57.87;101138.67;1760828;79;21584;-60
2021/10/26 00:11:05;;;;;;;26.87;15.58;;;;;;;0.86;57.97;101135.61;1766876;79;21453;-60
2021/10/26 00:13:31;;;;;;;28.32;15.78;;;;;;;0.85;57.98;101133.45;1750209;79;21471;-60
2021/10/26 00:16:00;;;;;;;24.95;14.93;;;;;;;0.85;58.03;101132.55;1733121;80;21559;-60
2021/10/26 00:18:26;;;;;;;26.37;14.40;;;;;;;0.80;58.26;101123.84;1747744;80;21511;-60
2021/10/26 00:20:53;;;;;;;27.37;14.93;;;;;;;0.82;58.32;101116.55;1760629;80;21700;-60
2021/10/26 00:23:19;;;;;;;28.55;15.15;;;;;;;0.80;58.35;101113.48;1771242;79;21582;-60
2021/10/26 00:25:46;;;;;;;28.00;14.10;;;;;;;0.82;58.30;101110.50;1760465;79;21517;-60
2021/10/26 00:28:13;;;;;;;31.00;15.65;;;;;;;0.75;58.44;101110.38;1735812;80;21477;-59
2021/10/26 00:30:39;;;;;;;35.43;15.55;;;;;;;0.72;58.51;101106.42;1771177;79;21455;-59
2021/10/26 00:33:06;;;;;;;24.77;15.23;;;;;;;0.71;58.67;101106.39;1761831;79;22005;-59
2021/10/26 00:35:35;;;;;;;27.82;14.47;;;;;;;0.71;58.69;101110.27;1738275;80;21510;-60
2021/10/26 00:38:01;;;;;;;23.65;14.18;;;;;;;0.69;58.76;101099.02;1747128;80;21460;-60
2021/10/26 00:40:29;;;;;;;23.65;14.03;;;;;;;0.70;58.73;101102.06;1740547;80;21507;-60
2021/10/26 00:42:56;;;;;;;28.83;14.70;;;;;;;0.69;58.75;101099.02;1759491;80;21591;-60
2021/10/26 00:45:22;;;;;;;27.40;15.70;;;;;;;0.67;58.77;101092.50;1739861;80;21472;-59
2021/10/26 00:47:50;;;;;;;28.27;15.75;;;;;;;0.65;58.87;101087.72;1731466;80;21402;-60
2021/10/26 00:50:16;;;;;;;29.12;15.13;;;;;;;0.66;58.88;101089.88;1728683;82;21569;-60
2021/10/26 00:52:45;;;;;;;26.20;15.45;;;;;;;0.63;59.00;101087.24;1764087;79;21520;-59
2021/10/26 00:55:12;;;;;;;25.23;14.65;;;;;;;0.59;59.01;101087.59;1740464;80;21093;-60
2021/10/26 00:57:40;;;;;;;29.80;14.60;;;;;;;0.63;59.12;101085.95;1730791;80;21507;-61
2021/10/26 01:00:10;;;;;;;28.30;14.85;;;;;;;0.56;58.96;101087.09;1746685;80;21582;-59
2021/10/26 01:02:37;;;;;;;29.72;15.48;;;;;;;0.56;59.28;101081.05;1737185;80;21541;-60
2021/10/26 01:05:06;;;;;;;27.67;13.75;;;;;;;0.55;59.14;101083.20;1754007;80;21430;-59
2021/10/26 01:07:32;;;;;;;31.97;15.25;;;;;;;0.53;59.38;101081.01;1734990;80;21492;-59
2021/10/26 01:09:59;;;;;;;24.27;13.87;;;;;;;0.54;59.33;101074.54;1743124;80;21784;-59
2021/10/26 01:12:29;;;;;;;26.93;14.33;;;;;;;0.53;59.38;101076.70;1746553;80;22033;-59
2021/10/26 01:14:56;;;;;;;27.80;14.70;;;;;;;0.49;59.46;101079.17;1748434;79;21500;-59
2021/10/26 01:17:23;;;;;;;26.05;14.75;;;;;;;0.46;59.55;101081.71;1734713;80;21607;-59
2021/10/26 01:19:52;;;;;;;30.27;14.60;;;;;;;0.45;59.72;101079.52;1761746;79;21506;-59
2021/10/26 01:22:21;;;;;;;24.72;14.55;;;;;;;0.47;59.71;101074.38;1752239;80;21981;-59
2021/10/26 01:24:49;;;;;;;28.35;14.70;;;;;;;0.48;59.72;101067.09;1736191;81;21447;-60
2021/10/26 01:27:16;;;;;;;30.43;15.38;;;;;;;0.48;59.66;101071.83;1716091;81;21550;-60
2021/10/26 01:29:43;;;;;;;24.10;13.60;;;;;;;0.48;59.71;101061.91;1760001;79;21087;-62
2021/10/26 01:32:12;;;;;;;29.37;15.17;;;;;;;0.44;59.76;101060.11;1764047;79;20979;-61
2021/10/26 01:34:41;;;;;;;24.47;14.10;;;;;;;0.46;59.80;101070.93;1760746;79;21796;-60
2021/10/26 01:37:09;;;;;;;23.55;13.55;;;;;;;0.44;59.96;101077.79;1742024;79;21558;-61
2021/10/26 01:39:37;;;;;;;25.08;13.83;;;;;;;0.41;59.92;101071.67;1770366;79;21565;-60
2021/10/26 01:42:06;;;;;;;27.75;14.80;;;;;;;0.39;60.07;101070.34;1769674;80;21411;-59
2021/10/26 01:44:33;;;;;;;27.82;14.90;;;;;;;0.39;60.07;101069.05;1771861;80;21605;-60
2021/10/26 01:47:02;;;;;;;23.27;13.93;;;;;;;0.38;60.13;101069.48;1739107;80;21853;-59
2021/10/26 01:49:29;;;;;;;28.05;15.15;;;;;;;0.40;60.00;101065.63;1746592;80;27197;-59
2021/10/26 01:51:56;;;;;;;23.27;14.53;;;;;;;0.38;60.15;101064.30;1727310;81;21578;-59
2021/10/26 01:54:22;;;;;;;25.30;14.93;;;;;;;0.37;60.16;101062.54;1784641;79;21566;-60
2021/10/26 01:56:51;;;;;;;21.85;13.83;;;;;;;0.38;60.21;101060.84;1737991;81;22217;-60
2021/10/26 01:59:26;;;;;;;26.05;14.55;;;;;;;0.33;60.35;101062.03;1781492;79;21751;-60
2021/10/26 02:01:53;;;;;;;28.07;13.62;;;;;;;0.32;60.39;101055.52;1781469;79;21457;-60
2021/10/26 02:04:22;;;;;;;23.67;13.88;;;;;;;0.33;60.45;101051.67;1778633;79;21553;-60
2021/10/26 02:06:48;;;;;;;28.57;14.87;;;;;;;0.34;60.37;101052.54;1759523;80;20988;-60
2021/10/26 02:09:15;;;;;;;26.57;15.03;;;;;;;0.32;60.47;101060.69;1769588;79;21562;-60
2021/10/26 02:11:42;;;;;;;28.60;14.85;;;;;;;0.29;60.52;101059.36;1780443;79;22010;-61
2021/10/26 02:14:08;;;;;;;30.60;14.00;;;;;;;0.27;60.53;101059.75;1770340;79;21441;-60
2021/10/26 02:16:36;;;;;;;26.50;13.80;;;;;;;0.30;60.60;101063.67;1769579;78;21508;-60
2021/10/26 02:19:03;;;;;;;27.55;14.07;;;;;;;0.33;60.59;101063.75;1764406;79;21593;-61
2021/10/26 02:21:30;;;;;;;24.72;14.03;;;;;;;0.29;60.69;101061.52;1741426;80;21640;-60
2021/10/26 02:23:57;;;;;;;24.10;13.50;;;;;;;0.28;60.64;101061.47;1767931;80;21969;-60
2021/10/26 02:26:38;;;;;;;24.30;14.35;;;;;;;0.28;60.66;101059.75;1660033;84;21573;-59
2021/10/26 02:29:05;;;;;;;22.27;14.45;;;;;;;0.24;60.87;101054.06;1631011;85;21611;-60
2021/10/26 02:31:34;;;;;;;23.60;12.63;;;;;;;0.22;60.87;101054.45;1641486;85;21592;-60
2021/10/26 02:34:01;;;;;;;27.98;14.03;;;;;;;0.20;60.96;101054.84;1613534;88;21621;-60
2021/10/26 02:36:28;;;;;;;25.85;14.73;;;;;;;0.18;61.01;101054.80;1660309;84;21811;-60
2021/10/26 02:38:54;;;;;;;24.87;14.15;;;;;;;0.19;61.10;101055.27;1613335;87;21081;-60
2021/10/26 02:41:21;;;;;;;24.23;14.05;;;;;;;0.20;61.12;101048.38;1660683;84;21063;-61
2021/10/26 02:43:48;;;;;;;22.82;13.32;;;;;;;0.19;61.09;101045.35;1661998;84;21522;-61
2021/10/26 02:46:15;;;;;;;23.05;13.38;;;;;;;0.16;61.11;101046.13;1659709;85;21497;-60
2021/10/26 02:48:43;;;;;;;21.62;12.75;;;;;;;0.15;61.21;101046.09;1632677;85;22110;-61
2021/10/26 02:51:10;;;;;;;24.43;14.53;;;;;;;0.13;61.23;101038.33;1664646;84;21417;-60
2021/10/26 02:53:37;;;;;;;26.05;14.03;;;;;;;0.13;61.38;101040.02;1664051;85;21509;-60
2021/10/26 02:56:05;;;;;;;26.00;13.13;;;;;;;0.12;61.40;101038.29;1616018;87;21624;-60
2021/10/26 02:58:32;;;;;;;27.47;13.93;;;;;;;0.10;61.41;101033.50;1661297;84;21687;-60
2021/10/26 03:00:59;;;;;;;31.10;13.18;;;;;;;0.09;61.50;101037.78;1661821;85;22085;-60
2021/10/26 03:03:26;;;;;;;24.07;13.60;;;;;;;0.08;61.57;101033.47;1614191;87;21579;-60
2021/10/26 03:05:53;;;;;;;25.32;13.98;;;;;;;0.07;61.52;101041.19;1614492;87;21642;-62
2021/10/26 03:08:20;;;;;;;29.33;14.43;;;;;;;0.07;61.60;101036.02;1644204;85;21491;-62
2021/10/26 03:10:47;;;;;;;22.37;13.08;;;;;;;0.04;61.62;101032.05;1661699;84;21827;-61
2021/10/26 03:13:16;;;;;;;25.23;13.35;;;;;;;0.01;61.77;101033.30;1664136;84;22089;-62
2021/10/26 03:15:43;;;;;;;26.65;14.70;;;;;;;-0.01;61.76;101028.95;1663480;84;21706;-61
2021/10/26 03:18:11;;;;;;;23.20;12.78;;;;;;;-0.12;61.89;101012.32;1664939;85;21463;-61
2021/10/26 03:20:40;;;;;;;25.30;14.00;;;;;;;-0.04;62.00;101026.71;1662217;84;21076;-62
2021/10/26 03:23:07;;;;;;;26.62;14.13;;;;;;;-0.07;62.01;101021.06;1633927;85;21641;-61
2021/10/26 03:25:36;;;;;;;22.48;13.43;;;;;;;-0.04;62.13;101025.42;1664050;84;21540;-61
2021/10/26 03:28:03;;;;;;;23.12;13.50;;;;;;;-0.06;62.09;101021.93;1656447;84;21900;-61
2021/10/26 03:30:30;;;;;;;20.17;13.48;;;;;;;-0.11;62.12;101023.13;1661075;84;21509;-61
2021/10/26 03:32:59;;;;;;;24.98;13.55;;;;;;;-0.13;62.27;101023.52;1657104;84;21648;-61
2021/10/26 03:35:27;;;;;;;20.37;12.40;;;;;;;-0.12;62.13;101016.63;1663068;84;21542;-62
2021/10/26 03:37:54;;;;;;;23.10;14.05;;;;;;;-0.14;62.19;101014.00;1664790;84;21768;-62
2021/10/26 03:40:21;;;;;;;22.58;13.20;;;;;;;-0.15;62.14;101012.27;1624071;85;21000;-62
2021/10/26 03:42:48;;;;;;;23.18;12.60;;;;;;;-0.10;62.13;101017.10;1639501;85;20991;-62
2021/10/26 03:45:14;;;;;;;18.92;12.50;;;;;;;-0.18;62.30;101004.44;1642667;85;21542;-62
2021/10/26 03:47:42;;;;;;;21.80;13.05;;;;;;;-0.20;62.33;101002.23;1615165;87;21501;-62
2021/10/26 03:50:10;;;;;;;22.48;13.22;;;;;;;-0.20;62.41;101008.70;1643436;86;21797;-62
2021/10/26 03:52:37;;;;;;;;;;;;;;;-0.23;62.45;101004.73;1644543;85;21608;-61
2021/10/26 03:55:06;;;;;;;22.30;11.70;;;;;;;-0.25;62.90;101005.12;1641686;85;27128;-62
2021/10/26 03:57:33;;;;;;;22.60;12.13;;;;;;;-0.28;62.71;101003.36;1642581;85;21823;-62
2021/10/26 04:00:00;;;;;;;22.05;13.30;;;;;;;-0.28;62.80;100999.48;1642196;86;20969;-62
2021/10/26 04:02:28;;;;;;;23.03;13.40;;;;;;;-0.28;62.86;100998.61;1641276;85;22707;-61
2021/10/26 04:05:10;;;;;;;22.75;12.80;;;;;;;-0.26;62.94;100998.23;1660431;84;21545;-61
2021/10/26 04:07:33;;;;;;;24.63;13.15;;;;;;;-0.30;63.22;100999.86;1661094;84;21489;-61
2021/10/26 04:10:07;;;;;;;23.45;12.30;;;;;;;-0.34;63.18;100995.87;1658346;84;21505;-61
2021/10/26 04:12:33;;;;;;;23.25;13.20;;;;;;;-0.34;63.26;100998.05;1664902;84;21623;-60
2021/10/26 04:15:02;;;;;;;20.25;12.45;;;;;;;-0.35;63.33;100995.00;1663577;84;21729;-60
2021/10/26 04:17:29;;;;;;;;;;;;;;;-0.34;63.44;101005.81;1662141;84;21617;-60
2021/10/26 04:19:59;;;;;;;22.10;13.08;;;;;;;-0.33;63.64;101000.21;1658717;84;20426;-60
2021/10/26 04:22:29;;;;;;;26.17;12.90;;;;;;;-0.34;63.51;101006.20;1661240;84;21465;-60
2021/10/26 04:24:55;;;;;;;21.75;13.10;;;;;;;-0.32;63.48;101000.25;1663593;84;21520;-60
2021/10/26 04:27:23;;;;;;;;;;;;;;;-0.30;63.43;100998.97;1641814;85;22144;-60
2021/10/26 04:29:50;;;;;;;22.10;12.60;;;;;;;-0.30;63.56;100996.38;1642196;85;20490;-59
2021/10/26 04:32:17;;;;;;;23.22;12.65;;;;;;;-0.31;63.41;100993.36;1650673;85;21517;-59
2021/10/26 04:34:46;;;;;;;23.87;13.28;;;;;;;-0.33;63.46;101000.21;1637899;85;21505;-59
2021/10/26 04:37:13;;;;;;;22.30;13.38;;;;;;;-0.38;63.65;100997.50;1650838;85;21613;-62
2021/10/26 04:39:42;;;;;;;23.90;13.90;;;;;;;-0.37;63.69;101010.03;1631722;85;22105;-60
2021/10/26 04:42:09;;;;;;;20.90;12.43;;;;;;;-0.41;63.77;101008.66;1647092;85;21596;-60
2021/10/26 04:44:38;;;;;;;23.45;13.48;;;;;;;-0.40;63.78;101010.81;1648621;86;21226;-60
2021/10/26 04:47:05;;;;;;;26.63;12.37;;;;;;;-0.43;64.04;101014.20;1643998;85;21040;-60
2021/10/26 04:49:32;;;;;;;24.10;12.82;;;;;;;-0.40;64.03;101011.70;1648325;85;21558;-60
2021/10/26 04:52:01;;;;;;;21.50;12.88;;;;;;;-0.38;64.09;101013.44;1649589;86;21787;-60
2021/10/26 04:54:29;;;;;;;21.45;13.28;;;;;;;-0.38;64.00;101009.56;1650255;85;21705;-62
2021/10/26 04:56:57;;;;;;;27.67;13.95;;;;;;;-0.39;64.05;101007.41;1642070;86;21529;-60
2021/10/26 04:59:38;;;;;;;20.80;11.97;;;;;;;-0.40;64.04;101006.53;1643635;86;21668;-62
2021/10/26 05:02:05;;;;;;;23.17;12.10;;;;;;;-0.38;64.03;101012.14;1646283;85;21021;-59
2021/10/26 05:04:34;;;;;;;22.07;12.68;;;;;;;-0.37;64.03;101017.35;1634758;85;21724;-59
2021/10/26 05:07:02;;;;;;;18.85;12.07;;;;;;;-0.41;64.17;101011.66;1607905;88;21524;-62
2021/10/26 05:09:28;;;;;;;;;;;;;;;-0.40;64.27;101015.98;1615269;87;21657;-61
2021/10/26 05:11:55;;;;;;;22.45;12.98;;;;;;;-0.36;64.44;101014.34;1609405;87;20429;-61
2021/10/26 05:14:22;;;;;;;19.77;11.77;;;;;;;-0.37;64.27;101016.49;1613531;87;21636;-60
2021/10/26 05:17:11;;;;;;;20.80;11.50;;;;;;;-0.34;64.12;101019.13;1620579;86;21158;-58
2021/10/26 05:19:41;;;;;;;23.52;12.37;;;;;;;-0.35;64.14;101016.97;1604923;87;21589;-58
2021/10/26 05:22:27;;;;;;;17.10;11.25;;;;;;;-0.37;64.34;101018.65;1634034;85;21528;-57
2021/10/26 05:25:06;;;;;;;24.70;12.37;;;;;;;-0.34;64.41;101014.86;1606962;87;21626;-59
2021/10/26 05:27:39;;;;;;;27.95;12.45;;;;;;;-0.31;64.30;101017.92;1626997;86;21529;-59
2021/10/26 05:30:07;;;;;;;19.20;11.50;;;;;;;-0.26;64.40;101016.32;1610794;87;21826;-59
2021/10/26 05:32:34;;;;;;;22.58;12.33;;;;;;;-0.23;64.37;101013.78;1647825;85;21517;-58
2021/10/26 05:35:01;;;;;;;22.80;11.63;;;;;;;-0.20;64.50;101021.62;1633571;85;21478;-58
2021/10/26 05:37:28;;;;;;;18.75;11.38;;;;;;;-0.14;64.50;101015.72;1632155;87;21470;-59
2021/10/26 05:39:54;;;;;;;20.80;11.38;;;;;;;-0.06;64.35;101023.22;1633315;85;21520;-59
2021/10/26 05:42:21;;;;;;;18.80;12.40;;;;;;;-0.01;64.29;101017.31;1634285;85;22109;-59
2021/10/26 05:45:45;;;;;;;18.73;10.78;;;;;;;0.13;64.19;101025.39;1770757;79;23167;-59
2021/10/26 05:48:08;;;;;;;18.65;11.65;;;;;;;0.15;63.98;101022.81;1735437;80;21404;-58
2021/10/26 05:50:35;;;;;;;16.02;10.72;;;;;;;0.17;63.91;101025.02;1732480;80;21802;-59
2021/10/26 05:53:01;;;;;;;17.82;10.72;;;;;;;0.23;63.94;101022.98;1739286;81;21526;-59
2021/10/26 05:55:28;;;;;;;19.10;10.60;;;;;;;0.29;63.75;101026.59;1740375;80;21657;-59
2021/10/26 05:57:55;;;;;;;18.43;11.63;;;;;;;0.34;63.65;101031.84;1731808;80;21511;-59
2021/10/26 06:00:25;;;;;;;18.92;10.30;;;;;;;0.42;63.59;101026.86;1742212;80;22167;-59
2021/10/26 06:02:53;;;;;;;19.30;11.00;;;;;;;0.49;63.58;101027.41;1737669;80;21855;-59
2021/10/26 06:05:20;;;;;;;18.37;11.03;;;;;;;0.59;63.38;101028.06;1743570;80;21408;-58
2021/10/26 06:07:47;;;;;;;18.20;11.35;;;;;;;0.66;63.29;101029.04;1732941;80;21530;-60
2021/10/26 06:10:14;;;;;;;19.00;11.05;;;;;;;0.74;63.09;101029.66;1745567;80;21595;-60
2021/10/26 06:12:50;;;;;;;24.52;11.45;;;;;;;0.82;62.97;101026.34;1734050;80;21594;-58
2021/10/26 06:15:11;;;;;;;19.73;12.53;;;;;;;0.90;62.90;101035.12;1740282;80;22089;-59
2021/10/26 06:17:39;;;;;;;17.73;10.98;;;;;;;1.02;62.55;101034.06;1733669;80;21547;-59
2021/10/26 06:20:07;;;;;;;16.87;11.50;;;;;;;1.10;62.60;101037.66;1739942;81;21583;-58
2021/10/26 06:22:34;;;;;;;13.60;9.95;;;;;;;1.20;62.48;101036.53;1743913;80;21506;-58
2021/10/26 06:25:02;;;;;;;;;;;;;;;1.28;62.36;101044.91;1697200;81;21530;-58
2021/10/26 06:27:31;;;;;;;16.82;10.82;;;;;;;1.36;62.35;101045.03;1653772;84;22064;-58
2021/10/26 06:30:00;;;;;;;16.97;10.97;;;;;;;1.47;61.96;101042.59;1695025;82;21603;-59
2021/10/26 06:32:31;;;;;;;21.25;10.75;;;;;;;1.54;62.01;101045.75;1696803;82;21594;-60
2021/10/26 06:34:58;;;;;;;17.07;11.57;;;;;;;1.68;61.71;101037.78;1698075;82;21029;-60
2021/10/26 06:37:25;;;;;;;16.17;9.90;;;;;;;1.81;61.57;101044.03;1699213;82;21729;-60
2021/10/26 06:39:55;;;;;;;18.85;11.00;;;;;;;1.94;61.38;101039.88;1705213;83;22107;-61
2021/10/26 06:42:21;;;;;;;18.75;10.43;;;;;;;2.05;61.00;101044.80;1696451;82;21084;-61
2021/10/26 06:45:09;;;;;;;;;;;;;;;2.14;61.11;101044.93;1620021;86;21534;-60
2021/10/26 06:47:49;;;;;;;20.92;10.98;;;;;;;2.25;61.03;101043.79;1605702;87;20510;-59
2021/10/26 06:50:34;;;;;;;14.47;10.63;;;;;;;2.31;60.63;101043.00;1664666;82;21542;-60
2021/10/26 06:53:03;;;;;;;19.42;10.75;;;;;;;2.46;60.49;101037.14;1650619;83;21823;-62
2021/10/26 06:55:52;;;;;;;16.23;10.50;;;;;;;2.57;60.23;101029.06;1693518;82;21600;-59
2021/10/26 06:58:23;;;;;;;20.32;11.45;;;;;;;2.65;60.33;101022.22;1688716;82;21536;-61
2021/10/26 07:01:09;;;;;;;14.78;10.60;;;;;;;2.76;60.34;101026.24;1695917;82;21073;-60
2021/10/26 07:03:44;;;;;;;16.23;10.18;;;;;;;2.91;60.14;101025.55;1693994;82;21604;-59
2021/10/26 07:06:16;;;;;;;15.68;10.45;;;;;;;3.14;59.81;101024.91;1695145;82;21778;-61
2021/10/26 07:08:46;;;;;;;17.70;10.08;;;;;;;3.21;59.97;101018.91;1699609;82;21040;-59
2021/10/26 07:11:32;;;;;;;17.98;11.05;;;;;;;3.34;59.68;101019.46;1714093;82;21554;-60
2021/10/26 07:14:01;;;;;;;21.33;11.20;;;;;;;3.47;59.58;101017.84;1697436;82;21655;-59
2021/10/26 07:16:27;;;;;;;16.37;9.73;;;;;;;3.62;59.27;101008.86;1708231;82;21420;-61
2021/10/26 07:18:56;;;;;;;15.55;9.68;;;;;;;3.76;59.01;101003.73;1698091;82;21481;-61
2021/10/26 07:21:24;;;;;;;15.93;9.68;;;;;;;3.92;58.89;101005.13;1693224;82;21514;-61
2021/10/26 07:24:04;;;;;;;12.58;9.20;;;;;;;4.08;58.62;100989.62;1708543;82;21068;-60
2021/10/26 07:26:34;;;;;;;16.45;9.03;;;;;;;4.26;58.24;100988.85;1703391;82;21525;-61
2021/10/26 07:29:01;;;;;;;17.37;9.70;;;;;;;4.42;58.02;100990.22;1703523;82;21628;-62
2021/10/26 07:31:28;;;;;;;12.80;9.65;;;;;;;4.55;57.98;100986.78;1697029;82;21828;-61
2021/10/26 07:33:57;;;;;;;15.23;9.33;;;;;;;4.74;57.61;100982.94;1710267;83;21508;-60
2021/10/26 07:36:30;;;;;;;10.00;7.78;;;;;;;4.87;57.24;100984.70;1701294;82;21521;-59
2021/10/26 07:38:58;;;;;;;10.80;7.72;;;;;;;4.97;57.03;100983.88;1711650;82;21576;-59
2021/10/26 07:41:22;;;;;;;11.15;8.18;;;;;;;5.19;56.42;100979.97;1706835;83;21409;-61
2021/10/26 07:43:58;;;;;;;10.60;7.22;;;;;;;5.32;56.41;100981.71;1676964;83;21539;-59
2021/10/26 07:46:33;;;;;;;8.73;7.17;;;;;;;5.47;56.14;100970.41;1674080;84;21478;-60
2021/10/26 07:49:03;;;;;;;13.48;7.20;;;;;;;5.63;55.61;100979.08;1697319;82;21569;-61
2021/10/26 07:51:29;;;;;;;9.95;6.47;;;;;;;5.75;55.45;100971.24;1714493;81;21531;-60
2021/10/26 07:53:56;;;;;;;8.65;5.85;;;;;;;5.91;55.23;100968.59;1720415;80;21507;-61
2021/10/26 07:56:23;;;;;;;8.65;6.42;;;;;;;6.09;53.93;100960.74;1719728;80;21812;-62
2021/10/26 07:58:50;;;;;;;9.45;6.28;;;;;;;6.23;53.65;100958.07;1718570;81;21528;-60
2021/10/26 08:01:17;;;;;;;9.05;5.80;;;;;;;6.43;51.82;100964.53;1691411;84;21483;-61
2021/10/26 08:03:46;;;;;;;10.18;6.47;;;;;;;6.46;51.75;100961.91;1717700;81;21496;-60
2021/10/26 08:06:13;;;;;;;8.83;6.45;;;;;;;6.53;51.90;100960.98;1722356;80;21555;-60
2021/10/26 08:08:40;;;;;;;9.20;5.75;;;;;;;6.62;51.75;100951.78;1735678;80;21782;-61
2021/10/26 08:11:07;;;;;;;7.60;6.37;;;;;;;6.76;51.35;100956.06;1690059;82;21018;-60
2021/10/26 08:13:35;;;;;;;10.15;5.78;;;;;;;6.89;51.05;100960.78;1687423;82;21498;-62
2021/10/26 08:16:03;;;;;;;8.75;6.37;;;;;;;6.99;50.28;100957.23;1720699;82;21017;-63
2021/10/26 08:18:31;;;;;;;9.20;6.45;;;;;;;7.04;50.36;100952.82;1701049;82;21070;-65
2021/10/26 08:20:58;;;;;;;11.15;6.58;;;;;;;7.16;50.11;100951.44;1704289;82;21808;-62
2021/10/26 08:23:26;;;;;;;6.80;6.12;;;;;;;7.30;49.74;100950.45;1720248;80;21539;-61
2021/10/26 08:25:58;;;;;;;8.90;6.28;;;;;;;7.35;49.42;100944.30;1734119;80;21579;-63
2021/10/26 08:28:24;;;;;;;7.25;6.30;;;;;;;7.40;49.52;100945.55;1726355;81;21586;-64
2021/10/26 08:31:00;;;;;;;6.83;6.12;;;;;;;7.51;49.24;100948.08;1733451;81;21551;-63
2021/10/26 08:35:52;;;;;;;9.53;6.62;;;;;;;7.80;47.01;100941.26;1683311;81;21527;-60
2021/10/26 08:38:19;;;;;;;10.28;6.35;;;;;;;7.83;46.90;100937.27;1726273;81;21745;-60
2021/10/26 08:40:51;;;;;;;8.68;6.22;;;;;;;7.86;46.88;100939.02;1708685;80;21522;-60
2021/10/26 08:43:23;;;;;;;;;;;;;;;7.95;46.47;100946.32;1690400;84;21572;-60
2021/10/26 08:45:53;;;;;;;8.45;6.62;;;;;;;7.86;46.78;100941.19;1670167;84;21819;-60
2021/10/26 08:48:24;;;;;;;7.42;6.50;;;;;;;7.88;46.95;100942.48;1674792;83;21527;-60
2021/10/26 08:50:56;;;;;;;7.33;6.60;;;;;;;7.95;46.47;100937.61;1725020;80;21646;-61
2021/10/26 08:53:26;;;;;;;9.70;6.87;;;;;;;8.00;46.33;100942.33;1728516;81;21598;-60
2021/10/26 08:56:02;;;;;;;8.70;6.55;;;;;;;8.06;46.54;100937.04;1735673;80;21476;-60
2021/10/26 08:58:49;;;;;;;8.90;6.35;;;;;;;8.15;46.48;100943.90;1681503;82;21847;-58
2021/10/26 09:01:17;;;;;;;11.12;6.60;;;;;;;8.24;46.38;100945.10;1681734;82;21605;-59
2021/10/26 09:03:50;;;;;;;8.25;6.50;;;;;;;8.44;45.33;100936.13;1699403;80;21449;-59
2021/10/26 09:06:25;;;;;;;10.40;6.17;;;;;;;8.42;45.97;100937.91;1698799;82;21467;-58
2021/10/26 09:08:54;;;;;;;8.03;6.17;;;;;;;8.50;45.76;100939.56;1695370;82;21720;-61
2021/10/26 09:11:38;;;;;;;11.88;5.65;;;;;;;8.67;45.10;100935.84;1734680;80;22118;-60
2021/10/26 09:17:26;;;;;;;9.45;5.53;;;;;;;8.90;44.24;100936.35;1725988;80;22073;-59
2021/10/26 09:20:21;;;;;;;6.60;5.30;;;;;;;9.52;43.28;100920.45;1733681;80;21480;-59
2021/10/26 09:22:52;;;;;;;7.83;5.55;;;;;;;10.30;41.65;100913.23;1733183;79;21552;-58
2021/10/26 09:25:20;;;;;;;12.15;6.10;;;;;;;10.62;41.23;100916.95;1734658;80;21825;-59
2021/10/26 09:27:49;;;;;;;6.37;5.75;;;;;;;10.78;41.36;100916.16;1736882;80;21550;-61
2021/10/26 09:30:22;;;;;;;10.35;5.90;;;;;;;10.64;41.55;100910.77;1729293;80;21562;-60
2021/10/26 09:32:50;;;;;;;8.18;6.30;;;;;;;10.54;41.99;100921.52;1725542;80;21056;-60
2021/10/26 09:35:18;;;;;;;8.80;5.70;;;;;;;10.59;41.57;100917.03;1734080;80;21837;-59
2021/10/26 09:37:53;;;;;;;10.10;6.10;;;;;;;10.57;41.35;100910.48;1735992;80;21827;-60
2021/10/26 09:40:19;;;;;;;7.75;6.30;;;;;;;10.70;40.94;100904.51;1688365;82;21514;-59
2021/10/26 09:42:51;;;;;;;8.33;6.40;;;;;;;10.85;40.07;100900.19;1693176;82;21009;-58
2021/10/26 09:45:28;;;;;;;10.28;6.35;;;;;;;10.96;39.90;100904.31;1714686;81;21525;-58
2021/10/26 09:47:59;;;;;;;11.53;6.22;;;;;;;11.13;38.67;100904.76;1726479;80;21612;-59
2021/10/26 09:50:31;;;;;;;8.10;6.55;;;;;;;11.10;38.50;100904.39;1726525;82;21798;-61
2021/10/26 09:53:11;;;;;;;10.82;6.47;;;;;;;11.15;38.10;100890.25;1728696;82;21602;-62
2021/10/26 09:55:51;;;;;;;7.60;6.20;;;;;;;11.10;37.96;100890.38;1722118;81;21952;-61
2021/10/26 09:58:16;;;;;;;8.80;6.50;;;;;;;11.02;38.55;100887.05;1722553;81;21503;-62
2021/10/26 10:00:45;;;;;;;10.20;6.40;;;;;;;10.99;38.54;100877.94;1711961;82;21590;-62
2021/10/26 10:03:24;;;;;;;8.05;6.78;;;;;;;10.86;38.94;100872.96;1692332;84;21805;-59
2021/10/26 10:05:58;;;;;;;10.63;7.45;;;;;;;10.86;39.23;100879.54;1721904;80;21404;-58
2021/10/26 10:08:29;;;;;;;8.75;6.65;;;;;;;10.88;39.46;100868.98;1704130;82;21507;-58
2021/10/26 10:11:14;;;;;;;14.28;6.72;;;;;;;10.96;39.41;100870.97;1701780;82;21653;-59
2021/10/26 10:13:48;;;;;;;16.85;12.58;;;;;;;11.06;39.43;100870.31;1723694;81;21449;-60
2021/10/26 10:16:16;;;;;;;9.65;8.10;;;;;;;11.18;39.08;100852.87;1725659;80;21879;-61
2021/10/26 10:18:44;;;;;;;7.83;6.25;;;;;;;11.19;38.77;100852.41;1730386;80;21579;-60
2021/10/26 10:21:14;;;;;;;;;;;;;;;11.25;38.57;100840.42;1728495;80;21492;-61
2021/10/26 10:23:42;;;;;;;11.12;6.40;;;;;;;11.26;38.24;100853.55;1726563;80;20484;-62
2021/10/26 10:26:15;;;;;;;11.43;6.20;;;;;;;11.27;38.79;100842.09;1692551;82;21408;-60
2021/10/26 10:28:48;;;;;;;10.80;6.62;;;;;;;11.26;38.53;100840.39;1697861;82;21562;-60
2021/10/26 10:31:25;;;;;;;17.75;6.65;;;;;;;11.29;38.40;100837.66;1717087;81;21489;-60
2021/10/26 10:33:52;;;;;;;7.35;6.08;;;;;;;11.38;37.90;100833.06;1726594;81;21417;-59
2021/10/26 10:36:20;;;;;;;15.35;6.90;;;;;;;11.32;38.04;100834.52;1730778;81;21520;-59
2021/10/26 10:38:47;;;;;;;12.50;8.40;;;;;;;11.29;38.51;100822.31;1730517;80;21501;-58
2021/10/26 10:41:32;;;;;;;8.53;6.50;;;;;;;11.25;38.14;100822.84;1672484;84;22110;-59
2021/10/26 10:44:05;;;;;;;11.33;6.10;;;;;;;11.28;37.82;100822.78;1694585;82;21510;-60
2021/10/26 10:46:47;;;;;;;8.35;5.53;;;;;;;11.39;37.28;100818.97;1737374;81;21546;-61
2021/10/26 10:49:27;;;;;;;13.20;5.90;;;;;;;11.35;37.14;100810.30;1733032;80;21625;-65
2021/10/26 10:52:04;;;;;;;6.85;6.15;;;;;;;11.25;37.55;100804.42;1733787;80;20982;-62
2021/10/26 10:57:37;;;;;;;7.28;5.87;;;;;;;11.33;37.14;100796.31;1729239;80;20205;-61
2021/10/26 11:00:15;;;;;;;8.58;4.95;;;;;;;11.43;37.26;100795.16;1738203;81;21554;-60
2021/10/26 11:02:47;;;;;;;11.33;5.95;;;;;;;11.57;37.33;100789.50;1741279;81;21135;-60
2021/10/26 11:05:40;;;;;;;8.08;5.37;;;;;;;11.68;37.21;100785.24;1708836;82;21522;-60
2021/10/26 11:08:15;;;;;;;5.87;5.28;;;;;;;11.75;37.05;100770.95;1716503;82;22018;-61
2021/10/26 11:10:57;;;;;;;8.13;5.37;;;;;;;11.82;36.61;100776.92;1713836;82;21471;-61
2021/10/26 11:13:31;;;;;;;7.08;5.10;;;;;;;11.86;36.44;100775.45;1702396;83;21498;-61
2021/10/26 11:16:05;;;;;;;10.43;4.97;;;;;;;11.85;36.26;100772.42;1700846;83;21462;-60
2021/10/26 11:18:45;;;;;;;5.85;5.20;;;;;;;11.88;36.05;100771.45;1697547;82;22259;-60
2021/10/26 11:21:29;;;;;;;9.75;5.10;;;;;;;11.93;36.10;100768.73;1703219;82;21694;-59
2021/10/26 11:24:07;;;;;;;8.90;4.70;;;;;;;11.93;35.92;100762.14;1685114;83;21034;-61
2021/10/26 11:26:38;;;;;;;13.60;5.00;;;;;;;11.95;35.47;100762.49;1704845;82;21643;-62
2021/10/26 11:29:11;;;;;;;6.85;5.45;;;;;;;11.98;35.14;100761.52;1709007;82;21592;-61
2021/10/26 11:31:50;;;;;;;5.97;4.90;;;;;;;11.98;35.31;100754.50;1692954;82;21556;-59
2021/10/26 11:34:27;;;;;;;6.53;4.60;;;;;;;12.07;34.74;100743.67;1705942;83;22181;-59
2021/10/26 11:37:06;;;;;;;7.62;5.05;;;;;;;12.14;34.65;100753.55;1700315;82;21546;-59
2021/10/26 11:39:36;;;;;;;9.90;8.05;;;;;;;12.08;34.08;100740.58;1699463;82;21805;-61
2021/10/26 11:42:07;;;;;;;12.00;8.90;;;;;;;12.15;34.27;100738.59;1689909;83;21526;-61
2021/10/26 11:44:32;;;;;;;8.53;5.25;;;;;;;12.30;34.28;100741.20;1701827;82;21572;-60